createdAt,value
2018-12-09T00:01:39.157Z,0.43
2018-12-09T00:04:14.925Z,0.40
2018-12-09T00:06:50.232Z,0.40
2018-12-09T00:09:22.236Z,0.50
2018-12-09T00:11:58.190Z,0.40
2018-12-09T00:14:34.340Z,0.20
2018-12-09T00:17:16.111Z,0.67
2018-12-09T00:19:51.885Z,0.50
2018-12-09T00:22:30.161Z,0.43
2018-12-09T00:25:12.676Z,1.00
2018-12-09T00:27:52.632Z,0.70
2018-12-09T00:30:28.823Z,0.90
2018-12-09T00:33:04.950Z,0.80
2018-12-09T00:35:47.665Z,0.97
2018-12-09T00:38:18.915Z,0.60
2018-12-09T00:40:56.831Z,0.90
2018-12-09T00:43:41.077Z,0.73
2018-12-09T00:46:27.364Z,1.10
2018-12-09T00:49:05.525Z,0.80
2018-12-09T00:51:45.449Z,0.97
2018-12-09T00:54:20.888Z,0.67
2018-12-09T00:56:57.153Z,0.90
2018-12-09T00:59:36.992Z,0.30
2018-12-09T01:02:13.276Z,0.63
2018-12-09T01:04:49.405Z,1.23
2018-12-09T01:07:23.143Z,1.00
2018-12-09T01:10:00.023Z,0.77
2018-12-09T01:12:36.303Z,1.10
2018-12-09T01:15:09.897Z,1.17
2018-12-09T01:17:45.351Z,1.40
2018-12-09T01:20:26.967Z,1.73
2018-12-09T01:23:00.580Z,1.20
2018-12-09T01:25:42.264Z,1.93
2018-12-09T01:28:18.067Z,2.03
2018-12-09T01:30:54.323Z,1.80
2018-12-09T01:33:30.461Z,1.60
2018-12-09T01:36:04.299Z,1.57
2018-12-09T01:38:39.917Z,2.13
2018-12-09T01:41:15.684Z,1.77
2018-12-09T01:43:51.840Z,1.87
2018-12-09T01:46:27.894Z,1.40
2018-12-09T01:49:04.094Z,1.63
2018-12-09T01:51:41.602Z,1.53
2018-12-09T01:54:18.879Z,1.77
2018-12-09T01:56:54.848Z,2.53
2018-12-09T01:59:29.111Z,2.10
2018-12-09T02:02:01.046Z,3.07
2018-12-09T02:04:36.573Z,2.43
2018-12-09T02:07:12.862Z,1.60
2018-12-09T02:09:55.211Z,2.10
2018-12-09T02:12:31.377Z,2.90
2018-12-09T02:15:05.401Z,2.20
2018-12-09T02:17:38.521Z,3.47
2018-12-09T02:20:12.636Z,3.00
2018-12-09T02:22:45.856Z,4.17
2018-12-09T02:25:21.407Z,2.40
2018-12-09T02:27:57.663Z,2.37
2018-12-09T02:30:31.596Z,2.20
2018-12-09T02:33:04.932Z,1.67
2018-12-09T02:35:45.860Z,3.73
2018-12-09T02:38:19.745Z,2.47
2018-12-09T02:40:53.260Z,2.70
2018-12-09T02:43:28.710Z,2.47
2018-12-09T02:46:02.508Z,2.87
2018-12-09T02:48:38.191Z,3.53
2018-12-09T02:51:12.232Z,2.77
2018-12-09T02:53:45.545Z,2.60
2018-12-09T02:56:19.064Z,3.30
2018-12-09T02:58:52.230Z,3.70
2018-12-09T03:01:25.441Z,4.20
2018-12-09T03:06:31.744Z,4.13
2018-12-09T03:09:07.072Z,3.73
2018-12-09T03:11:41.212Z,4.23
2018-12-09T03:14:15.195Z,2.90
2018-12-09T03:16:48.356Z,3.73
2018-12-09T03:19:21.572Z,2.77
2018-12-09T03:21:55.194Z,3.10
2018-12-09T03:24:28.471Z,4.07
2018-12-09T03:27:00.476Z,2.40
2018-12-09T03:29:33.549Z,2.30
2018-12-09T03:32:07.085Z,2.90
2018-12-09T03:34:40.306Z,2.00
2018-12-09T03:37:13.395Z,1.97
2018-12-09T03:39:49.159Z,2.37
2018-12-09T03:42:23.296Z,2.30
2018-12-09T03:44:59.391Z,2.53
2018-12-09T03:47:33.429Z,1.87
2018-12-09T03:50:09.139Z,1.70
2018-12-09T03:52:42.672Z,1.03
2018-12-09T03:55:16.109Z,1.70
2018-12-09T03:57:49.379Z,1.80
2018-12-09T04:00:23.644Z,1.30
2018-12-09T04:02:56.832Z,1.70
2018-12-09T04:05:31.495Z,1.43
2018-12-09T04:08:05.494Z,2.10
2018-12-09T04:10:39.074Z,1.40
2018-12-09T04:13:12.404Z,0.87
2018-12-09T04:15:45.664Z,1.90
2018-12-09T04:18:21.215Z,1.40
2018-12-09T04:20:56.533Z,1.53
2018-12-09T04:23:29.632Z,1.50
2018-12-09T04:26:04.327Z,1.00
2018-12-09T04:28:37.660Z,2.70
2018-12-09T04:31:10.747Z,0.90
2018-12-09T04:33:44.024Z,1.37
2018-12-09T04:36:17.533Z,1.37
2018-12-09T04:38:50.622Z,0.90
2018-12-09T04:41:24.152Z,1.63
2018-12-09T04:43:59.808Z,1.93
2018-12-09T04:46:33.787Z,1.37
2018-12-09T04:49:07.339Z,2.20
2018-12-09T04:51:48.068Z,1.13
2018-12-09T04:54:19.523Z,1.63
2018-12-09T04:56:53.913Z,1.50
2018-12-09T04:59:27.548Z,1.00
2018-12-09T05:02:01.454Z,1.23
2018-12-09T05:04:37.160Z,1.10
2018-12-09T05:07:08.527Z,1.70
2018-12-09T05:09:42.487Z,1.50
2018-12-09T05:12:15.694Z,0.90
2018-12-09T05:14:49.236Z,0.57
2018-12-09T05:17:22.995Z,0.93
2018-12-09T05:19:58.516Z,0.90
2018-12-09T05:22:31.828Z,0.77
2018-12-09T05:25:08.052Z,0.80
2018-12-09T05:27:42.112Z,1.10
2018-12-09T05:30:15.555Z,1.10
2018-12-09T05:32:47.301Z,1.47
2018-12-09T05:35:30.935Z,1.87
2018-12-09T05:38:06.868Z,1.20
2018-12-09T05:40:38.429Z,0.80
2018-12-09T05:43:26.766Z,0.77
2018-12-09T05:45:58.338Z,1.43
2018-12-09T05:48:46.221Z,0.90
2018-12-09T05:51:19.760Z,0.83
2018-12-09T05:53:52.160Z,1.07
2018-12-09T05:56:28.374Z,1.10
2018-12-09T05:59:01.877Z,1.70
2018-12-09T06:01:50.236Z,1.47
2018-12-09T06:04:26.180Z,1.23
2018-12-09T06:07:01.720Z,0.83
2018-12-09T06:12:13.961Z,1.03
2018-12-09T06:14:49.009Z,0.80
2018-12-09T06:17:24.523Z,0.93
2018-12-09T06:20:00.639Z,0.60
2018-12-09T06:22:36.652Z,0.60
2018-12-09T06:25:10.666Z,1.00
2018-12-09T06:27:44.268Z,1.47
2018-12-09T06:30:18.183Z,1.40
2018-12-09T06:33:00.007Z,2.20
2018-12-09T06:35:33.500Z,1.37
2018-12-09T06:38:15.417Z,2.27
2018-12-09T06:40:49.285Z,1.77
2018-12-09T06:43:22.804Z,1.70
2018-12-09T06:46:06.700Z,1.63
2018-12-09T06:48:42.500Z,1.50
2018-12-09T06:51:26.576Z,3.17
2018-12-09T06:54:00.411Z,1.57
2018-12-09T06:56:35.952Z,0.90
2018-12-09T06:59:12.175Z,0.83
2018-12-09T07:01:46.293Z,1.47
2018-12-09T07:04:25.798Z,1.87
2018-12-09T07:06:59.036Z,1.50
2018-12-09T07:09:34.635Z,1.27
2018-12-09T07:12:18.304Z,1.03
2018-12-09T07:14:50.120Z,1.10
2018-12-09T07:17:23.228Z,1.27
2018-12-09T07:19:56.539Z,1.33
2018-12-09T07:22:38.284Z,1.63
2018-12-09T07:25:16.296Z,1.37
2018-12-09T07:27:48.199Z,1.37
2018-12-09T07:30:29.028Z,2.10
2018-12-09T07:33:02.978Z,1.23
2018-12-09T07:35:42.428Z,1.57
2018-12-09T07:38:16.335Z,1.40
2018-12-09T07:40:57.996Z,1.97
2018-12-09T07:43:33.903Z,1.60
2018-12-09T07:46:09.244Z,1.27
2018-12-09T07:48:43.601Z,1.87
2018-12-09T07:51:24.127Z,2.07
2018-12-09T07:54:00.383Z,1.43
2018-12-09T07:56:36.656Z,1.60
2018-12-09T07:59:10.987Z,1.53
2018-12-09T08:01:45.126Z,1.60
2018-12-09T08:04:19.148Z,0.97
2018-12-09T08:07:04.973Z,1.17
2018-12-09T08:09:36.600Z,1.57
2018-12-09T08:12:13.999Z,1.33
2018-12-09T08:17:23.855Z,1.47
2018-12-09T08:20:04.674Z,2.53
2018-12-09T08:22:38.105Z,1.50
2018-12-09T08:25:11.507Z,0.90
2018-12-09T08:27:44.870Z,0.83
2018-12-09T08:30:16.292Z,1.60
2018-12-09T08:32:56.816Z,1.57
2018-12-09T08:35:39.475Z,2.27
2018-12-09T08:38:13.164Z,2.37
2018-12-09T08:40:54.820Z,2.23
2018-12-09T08:43:28.464Z,2.30
2018-12-09T08:46:01.768Z,2.00
2018-12-09T08:48:39.757Z,2.20
2018-12-09T08:51:11.303Z,1.20
2018-12-09T08:53:46.834Z,2.17
2018-12-09T08:56:25.030Z,1.70
2018-12-09T09:02:05.615Z,2.13
2018-12-09T09:04:38.843Z,2.30
2018-12-09T09:07:16.181Z,1.50
2018-12-09T09:09:58.544Z,2.43
2018-12-09T09:12:34.000Z,1.90
2018-12-09T09:15:14.036Z,2.60
2018-12-09T09:17:50.255Z,2.00
2018-12-09T09:20:28.300Z,2.07
2018-12-09T09:23:06.660Z,1.83
2018-12-09T09:25:42.899Z,1.80
2018-12-09T09:28:22.480Z,2.57
2018-12-09T09:30:58.520Z,2.03
2018-12-09T09:33:34.383Z,2.07
2018-12-09T09:36:07.952Z,1.93
2018-12-09T09:38:47.431Z,2.73
2018-12-09T09:41:24.639Z,1.60
2018-12-09T09:44:00.656Z,2.37
2018-12-09T09:46:34.568Z,2.50
2018-12-09T09:49:14.120Z,2.30
2018-12-09T09:51:50.276Z,2.20
2018-12-09T09:54:22.296Z,2.17
2018-12-09T09:56:59.587Z,2.50
2018-12-09T09:59:32.904Z,1.87
2018-12-09T10:02:16.804Z,3.17
2018-12-09T10:04:52.689Z,2.47
2018-12-09T10:07:35.000Z,2.50
2018-12-09T10:10:14.883Z,1.70
2018-12-09T10:12:51.309Z,2.23
2018-12-09T10:15:23.060Z,2.40
2018-12-09T10:20:37.939Z,1.30
2018-12-09T10:23:17.728Z,1.93
2018-12-09T10:25:57.893Z,1.67
2018-12-09T10:28:33.829Z,1.63
2018-12-09T10:31:20.252Z,1.03
2018-12-09T10:34:08.000Z,2.57
2018-12-09T10:36:39.608Z,1.27
2018-12-09T10:39:15.260Z,2.17
2018-12-09T10:41:57.537Z,1.70
2018-12-09T10:44:34.802Z,1.47
2018-12-09T10:47:06.379Z,1.43
2018-12-09T10:49:37.604Z,3.00
2018-12-09T10:52:21.162Z,1.17
2018-12-09T10:54:53.706Z,1.87
2018-12-09T10:57:35.417Z,1.40
2018-12-09T11:00:15.333Z,1.90
2018-12-09T11:02:55.525Z,1.53
2018-12-09T11:05:31.764Z,1.20
2018-12-09T11:08:09.933Z,2.43
2018-12-09T11:10:46.188Z,1.23
2018-12-09T11:13:24.412Z,0.87
2018-12-09T11:16:06.729Z,1.43
2018-12-09T11:23:44.659Z,1.20
2018-12-09T11:26:20.856Z,2.10
2018-12-09T11:28:57.237Z,2.03
2018-12-09T11:31:29.408Z,1.30
2018-12-09T11:34:05.515Z,1.10
2018-12-09T11:36:55.239Z,0.80
2018-12-09T11:39:28.833Z,0.97
2018-12-09T11:42:05.446Z,1.33
2018-12-09T11:44:42.490Z,0.80
2018-12-09T11:47:17.841Z,0.80
2018-12-09T11:49:53.168Z,1.00
2018-12-09T11:52:28.623Z,0.77
2018-12-09T11:55:05.412Z,0.73
2018-12-09T11:57:42.554Z,0.70
2018-12-09T12:00:25.281Z,0.60
2018-12-09T12:02:58.404Z,0.90
2018-12-09T12:05:36.559Z,1.53
2018-12-09T12:08:12.332Z,1.43
2018-12-09T12:10:58.882Z,2.40
2018-12-09T12:13:36.583Z,2.00
2018-12-09T12:16:18.208Z,1.00
2018-12-09T12:18:54.332Z,1.90
2018-12-09T12:21:42.397Z,1.30
2018-12-09T12:24:18.308Z,1.00
2018-12-09T12:26:57.950Z,1.37
2018-12-09T12:29:38.223Z,0.90
2018-12-09T12:32:11.392Z,1.00
2018-12-09T12:34:47.608Z,1.60
2018-12-09T12:37:23.853Z,2.13
2018-12-09T12:40:01.830Z,2.63
2018-12-09T12:42:38.096Z,2.53
2018-12-09T12:45:11.988Z,1.57
2018-12-09T12:47:45.987Z,1.23
2018-12-09T12:50:19.510Z,2.40
2018-12-09T12:52:53.200Z,1.73
2018-12-09T12:55:33.428Z,1.47
2018-12-09T12:58:06.544Z,1.10
2018-12-09T13:00:42.153Z,1.50
2018-12-09T13:03:16.191Z,1.63
2018-12-09T13:05:51.968Z,2.60
2018-12-09T13:08:28.058Z,2.37
2018-12-09T13:11:04.224Z,4.57
2018-12-09T13:13:40.538Z,2.83
2018-12-09T13:16:18.739Z,3.13
2018-12-09T13:18:54.380Z,3.17
2018-12-09T13:21:26.328Z,2.80
2018-12-09T13:23:58.103Z,1.60
2018-12-09T13:26:33.467Z,1.70
2018-12-09T13:29:13.730Z,2.87
2018-12-09T13:31:53.100Z,2.43
2018-12-09T13:34:27.053Z,1.57
2018-12-09T13:37:02.621Z,2.80
2018-12-09T13:39:39.840Z,2.67
2018-12-09T13:42:22.500Z,2.57
2018-12-09T13:44:54.560Z,2.73
2018-12-09T13:47:34.213Z,3.40
2018-12-09T13:50:10.487Z,2.40
2018-12-09T13:52:52.692Z,2.30
2018-12-09T13:55:34.647Z,1.63
2018-12-09T13:58:08.385Z,1.50
2018-12-09T14:00:44.676Z,1.20
2018-12-09T14:03:26.880Z,1.53
2018-12-09T14:06:08.744Z,2.10
2018-12-09T14:08:46.940Z,4.20
2018-12-09T14:11:20.760Z,1.63
2018-12-09T14:13:53.987Z,0.80
2018-12-09T14:16:27.103Z,0.53
2018-12-09T14:19:00.871Z,0.50
2018-12-09T14:21:32.669Z,0.70
2018-12-09T14:24:15.325Z,0.50
2018-12-09T14:26:49.047Z,1.17
2018-12-09T14:29:24.931Z,2.00
2018-12-09T14:32:01.332Z,1.77
2018-12-09T14:34:38.624Z,1.23
2018-12-09T14:37:16.695Z,1.27
2018-12-09T14:39:48.048Z,0.73
2018-12-09T14:42:26.217Z,1.03
2018-12-09T14:45:03.600Z,1.20
2018-12-09T14:47:47.333Z,1.30
2018-12-09T14:50:29.614Z,1.67
2018-12-09T14:53:03.261Z,1.90
2018-12-09T14:55:41.238Z,2.37
2018-12-09T14:58:17.357Z,2.30
2018-12-09T15:01:01.849Z,3.90
2018-12-09T15:03:38.316Z,2.73
2018-12-09T15:06:12.752Z,1.40
2018-12-09T15:08:49.249Z,1.80
2018-12-09T15:11:22.443Z,1.27
2018-12-09T15:13:58.255Z,1.77
2018-12-09T15:16:35.607Z,2.97
2018-12-09T15:19:09.476Z,1.80
2018-12-09T15:21:43.012Z,5.10
2018-12-09T15:24:16.147Z,4.30
2018-12-09T15:26:50.569Z,3.40
2018-12-09T15:29:35.184Z,3.70
2018-12-09T15:32:08.893Z,2.20
2018-12-09T15:34:42.191Z,3.40
2018-12-09T15:37:15.484Z,2.00
2018-12-09T15:39:48.680Z,3.33
2018-12-09T15:42:21.900Z,5.00
2018-12-09T15:44:55.072Z,4.77
2018-12-09T15:47:26.260Z,5.40
2018-12-09T15:49:59.649Z,7.77
2018-12-09T15:52:33.198Z,6.07
2018-12-09T15:55:06.731Z,4.43
2018-12-09T15:57:43.206Z,4.30
2018-12-09T16:00:19.001Z,4.00
2018-12-09T16:02:56.256Z,2.47
2018-12-09T16:05:44.485Z,2.63
2018-12-09T16:08:20.322Z,2.53
2018-12-09T16:11:02.717Z,3.40
2018-12-09T16:13:38.589Z,4.07
2018-12-09T16:16:21.044Z,3.20
2018-12-09T16:19:05.239Z,4.27
2018-12-09T16:21:42.864Z,4.10
2018-12-09T16:24:18.552Z,3.77
2018-12-09T16:27:00.997Z,3.60
2018-12-09T16:29:34.556Z,3.37
2018-12-09T16:32:11.255Z,3.43
2018-12-09T16:34:46.683Z,3.87
2018-12-09T16:37:24.133Z,2.53
2018-12-09T16:40:00.173Z,3.30
2018-12-09T16:42:36.389Z,3.57
2018-12-09T16:45:13.889Z,1.47
2018-12-09T16:47:45.571Z,2.13
2018-12-09T16:50:23.515Z,2.37
2018-12-09T16:52:57.556Z,3.10
2018-12-09T16:55:33.060Z,2.37
2018-12-09T16:58:07.052Z,2.33
2018-12-09T17:00:40.445Z,1.63
2018-12-09T17:03:16.392Z,2.33
2018-12-09T17:05:59.854Z,2.00
2018-12-09T17:08:31.927Z,2.93
2018-12-09T17:11:05.144Z,2.03
2018-12-09T17:13:47.619Z,2.23
2018-12-09T17:16:21.160Z,2.40
2018-12-09T17:18:57.180Z,2.80
2018-12-09T17:21:31.106Z,2.77
2018-12-09T17:24:05.280Z,5.83
2018-12-09T17:26:44.668Z,5.13
2018-12-09T17:29:18.706Z,5.13
2018-12-09T17:32:02.694Z,4.83
2018-12-09T17:34:51.229Z,5.97
2018-12-09T17:37:28.066Z,6.70
2018-12-09T17:40:03.001Z,5.90
2018-12-09T17:42:37.732Z,7.03
2018-12-09T17:45:11.560Z,5.23
2018-12-09T17:47:55.332Z,6.80
2018-12-09T17:50:27.027Z,3.70
2018-12-09T17:53:08.789Z,3.73
2018-12-09T17:55:40.395Z,4.67
2018-12-09T17:58:14.282Z,3.80
2018-12-09T18:00:47.834Z,2.77
2018-12-09T18:03:25.615Z,2.80
2018-12-09T18:06:02.025Z,3.70
2018-12-09T18:08:38.341Z,2.63
2018-12-09T18:11:14.252Z,2.90
2018-12-09T18:13:50.448Z,3.07
2018-12-09T18:16:26.503Z,2.30
2018-12-09T18:19:02.737Z,3.67
2018-12-09T18:21:38.100Z,2.93
2018-12-09T18:24:11.658Z,4.53
2018-12-09T18:26:46.256Z,3.43
2018-12-09T18:29:18.060Z,2.63
2018-12-09T18:31:55.616Z,3.03
2018-12-09T18:34:32.885Z,2.77
2018-12-09T18:37:07.131Z,3.63
2018-12-09T18:39:43.520Z,3.13
2018-12-09T18:42:15.451Z,3.27
2018-12-09T18:44:48.644Z,4.20
2018-12-09T18:47:24.173Z,3.87
2018-12-09T18:49:56.220Z,5.03
2018-12-09T18:52:36.265Z,5.10
2018-12-09T18:55:07.520Z,5.80
2018-12-09T18:57:41.034Z,4.40
2018-12-09T19:00:22.709Z,4.40
2018-12-09T19:02:58.472Z,3.17
2018-12-09T19:05:32.039Z,2.73
2018-12-09T19:08:06.268Z,3.53
2018-12-09T19:10:40.200Z,3.13
2018-12-09T19:13:13.791Z,4.80
2018-12-09T19:16:02.273Z,3.63
2018-12-09T19:18:34.115Z,4.40
2018-12-09T19:21:08.133Z,4.87
2018-12-09T19:23:43.850Z,4.27
2018-12-09T19:26:23.999Z,4.17
2018-12-09T19:29:00.255Z,3.90
2018-12-09T19:31:32.211Z,3.73
2018-12-09T19:34:05.388Z,3.80
2018-12-09T19:36:38.853Z,4.60
2018-12-09T19:39:11.932Z,4.30
2018-12-09T19:41:49.630Z,3.90
2018-12-09T19:44:26.035Z,3.37
2018-12-09T19:47:02.177Z,3.90
2018-12-09T19:49:35.384Z,3.40
2018-12-09T19:52:08.731Z,3.57
2018-12-09T19:54:44.399Z,3.40
2018-12-09T19:57:17.724Z,3.50
2018-12-09T19:59:59.371Z,3.10
2018-12-09T20:02:35.123Z,4.17
2018-12-09T20:05:08.236Z,5.07
2018-12-09T20:07:42.033Z,3.93
2018-12-09T20:10:15.623Z,4.93
2018-12-09T20:12:49.653Z,4.17
2018-12-09T20:15:23.595Z,4.10
2018-12-09T20:17:57.683Z,3.73
2018-12-09T20:20:31.024Z,3.57
2018-12-09T20:23:04.583Z,3.83
2018-12-09T20:25:37.911Z,3.47
2018-12-09T20:28:26.710Z,3.80
2018-12-09T20:31:03.652Z,3.57
2018-12-09T20:33:52.076Z,3.00
2018-12-09T20:36:29.948Z,3.43
2018-12-09T20:39:01.842Z,3.70
2018-12-09T20:41:38.317Z,3.00
2018-12-09T20:44:14.387Z,4.27
2018-12-09T20:46:46.391Z,3.50
2018-12-09T20:49:21.987Z,3.07
2018-12-09T20:52:04.234Z,3.97
2018-12-09T20:54:38.556Z,4.70
2018-12-09T20:57:12.894Z,4.93
2018-12-09T20:59:55.068Z,4.50
2018-12-09T21:02:31.197Z,5.03
2018-12-09T21:05:05.531Z,3.93
2018-12-09T21:07:42.264Z,3.60
2018-12-09T21:10:15.488Z,3.47
2018-12-09T21:12:51.136Z,4.03
2018-12-09T21:15:26.498Z,4.23
2018-12-09T21:18:01.929Z,4.00
2018-12-09T21:20:37.181Z,4.30
2018-12-09T21:23:13.332Z,3.33
2018-12-09T21:25:52.708Z,3.47
2018-12-09T21:28:25.892Z,4.93
2018-12-09T21:31:01.409Z,2.77
2018-12-09T21:33:33.440Z,3.00
2018-12-09T21:36:17.364Z,3.07
2018-12-09T21:38:51.143Z,3.30
2018-12-09T21:41:26.447Z,2.70
2018-12-09T21:44:00.472Z,2.63
2018-12-09T21:46:35.884Z,3.87
2018-12-09T21:49:10.190Z,3.57
2018-12-09T21:51:42.245Z,3.53
2018-12-09T21:54:15.567Z,3.77
2018-12-09T21:56:51.140Z,2.87
2018-12-09T21:59:35.599Z,2.13
2018-12-09T22:02:13.594Z,3.40
2018-12-09T22:04:48.070Z,2.47
2018-12-09T22:07:24.337Z,3.07
2018-12-09T22:09:56.403Z,2.47
2018-12-09T22:12:30.451Z,3.47
2018-12-09T22:15:08.720Z,3.40
2018-12-09T22:17:42.156Z,3.47
2018-12-09T22:20:18.038Z,2.93
2018-12-09T22:22:54.029Z,3.47
2018-12-09T22:25:27.908Z,3.17
2018-12-09T22:28:07.736Z,2.93
2018-12-09T22:30:43.959Z,3.07
2018-12-09T22:33:24.111Z,3.03
2018-12-09T22:36:01.409Z,2.60
2018-12-09T22:38:38.401Z,4.40
2018-12-09T22:41:16.547Z,3.00
2018-12-09T22:43:53.057Z,2.53
2018-12-09T22:46:29.019Z,3.47
2018-12-09T22:49:05.212Z,3.23
2018-12-09T22:51:49.170Z,3.60
2018-12-09T22:54:26.179Z,3.50
2018-12-09T22:57:02.561Z,3.47
2018-12-09T22:59:40.084Z,3.00
2018-12-09T23:02:25.081Z,3.90
2018-12-09T23:05:01.717Z,3.07
2018-12-09T23:07:48.952Z,3.00
2018-12-09T23:10:36.454Z,4.17
2018-12-09T23:13:10.133Z,2.93
2018-12-09T23:15:51.879Z,2.70
2018-12-09T23:18:27.538Z,3.13
2018-12-09T23:21:03.394Z,3.93
2018-12-09T23:23:39.630Z,3.40
2018-12-09T23:26:11.528Z,3.30
2018-12-09T23:28:47.223Z,4.53
2018-12-09T23:31:21.060Z,3.30
2018-12-09T23:33:58.143Z,3.30
2018-12-09T23:36:37.977Z,3.80
2018-12-09T23:39:14.076Z,4.03
2018-12-09T23:41:50.412Z,4.50
2018-12-09T23:44:22.428Z,4.77
2018-12-09T23:46:58.002Z,4.50
2018-12-09T23:49:40.418Z,4.23
2018-12-09T23:52:16.003Z,3.30
2018-12-09T23:54:49.959Z,3.70
2018-12-09T23:57:25.703Z,3.50
2018-12-09T23:59:57.266Z,3.37
